sensor_id;sensor_type;location;lat;lon;timestamp;temperature;humidity
54178;DHT22;40085;53.004;6.770;2023-12-20T00:00:59;5.60;99.90
54178;DHT22;40085;53.004;6.770;2023-12-20T00:03:24;5.40;99.90
54178;DHT22;40085;53.004;6.770;2023-12-20T00:05:50;5.40;99.90
54178;DHT22;40085;53.004;6.770;2023-12-20T00:08:16;5.40;99.90
54178;DHT22;40085;53.004;6.770;2023-12-20T00:10:43;5.50;99.90
54178;DHT22;40085;53.004;6.770;2023-12-20T00:13:09;5.40;99.90
54178;DHT22;40085;53.004;6.770;2023-12-20T00:15:35;5.30;99.90
54178;DHT22;40085;53.004;6.770;2023-12-20T00:18:00;5.40;99.90
54178;DHT22;40085;53.004;6.770;2023-12-20T00:20:27;5.30;99.90
54178;DHT22;40085;53.004;6.770;2023-12-20T00:22:57;5.40;99.90
54178;DHT22;40085;53.004;6.770;2023-12-20T00:25:23;5.30;99.90
54178;DHT22;40085;53.004;6.770;2023-12-20T00:27:49;5.90;99.90
54178;DHT22;40085;53.004;6.770;2023-12-20T00:30:15;5.20;99.90
54178;DHT22;40085;53.004;6.770;2023-12-20T00:32:40;5.20;99.90
54178;DHT22;40085;53.004;6.770;2023-12-20T00:35:12;5.20;99.90
54178;DHT22;40085;53.004;6.770;2023-12-20T00:37:38;5.20;99.90
54178;DHT22;40085;53.004;6.770;2023-12-20T00:40:04;5.10;99.90
54178;DHT22;40085;53.004;6.770;2023-12-20T00:42:30;5.20;99.90
54178;DHT22;40085;53.004;6.770;2023-12-20T00:44:56;5.20;99.90
54178;DHT22;40085;53.004;6.770;2023-12-20T00:47:21;5.20;99.90
54178;DHT22;40085;53.004;6.770;2023-12-20T00:49:47;5.20;99.90
54178;DHT22;40085;53.004;6.770;2023-12-20T00:52:13;5.30;99.90
54178;DHT22;40085;53.004;6.770;2023-12-20T00:54:39;5.40;99.90
54178;DHT22;40085;53.004;6.770;2023-12-20T00:57:05;5.70;99.90
54178;DHT22;40085;53.004;6.770;2023-12-20T00:59:30;5.50;99.90
54178;DHT22;40085;53.004;6.770;2023-12-20T01:01:56;5.50;99.90
54178;DHT22;40085;53.004;6.770;2023-12-20T01:04:22;5.50;99.90
54178;DHT22;40085;53.004;6.770;2023-12-20T01:06:47;5.50;99.90
54178;DHT22;40085;53.004;6.770;2023-12-20T01:09:13;5.50;99.90
54178;DHT22;40085;53.004;6.770;2023-12-20T01:11:39;5.40;99.90
54178;DHT22;40085;53.004;6.770;2023-12-20T01:14:05;5.40;99.90
54178;DHT22;40085;53.004;6.770;2023-12-20T01:16:31;5.40;99.90
54178;DHT22;40085;53.004;6.770;2023-12-20T01:18:56;5.30;99.90
54178;DHT22;40085;53.004;6.770;2023-12-20T01:21:22;5.30;99.90
54178;DHT22;40085;53.004;6.770;2023-12-20T01:23:48;5.40;99.90
54178;DHT22;40085;53.004;6.770;2023-12-20T01:26:15;5.30;99.90
54178;DHT22;40085;53.004;6.770;2023-12-20T01:28:40;5.30;99.90
54178;DHT22;40085;53.004;6.770;2023-12-20T01:31:06;5.30;99.90
54178;DHT22;40085;53.004;6.770;2023-12-20T01:33:31;5.30;99.90
54178;DHT22;40085;53.004;6.770;2023-12-20T01:35:57;5.30;99.90
54178;DHT22;40085;53.004;6.770;2023-12-20T01:38:23;5.30;99.90
54178;DHT22;40085;53.004;6.770;2023-12-20T01:40:48;5.30;99.90
54178;DHT22;40085;53.004;6.770;2023-12-20T01:43:14;5.30;99.90
54178;DHT22;40085;53.004;6.770;2023-12-20T01:45:40;5.30;99.90
54178;DHT22;40085;53.004;6.770;2023-12-20T01:48:07;5.30;99.90
54178;DHT22;40085;53.004;6.770;2023-12-20T01:50:36;5.40;99.90
54178;DHT22;40085;53.004;6.770;2023-12-20T01:53:04;5.40;99.90
54178;DHT22;40085;53.004;6.770;2023-12-20T01:55:32;5.40;99.90
54178;DHT22;40085;53.004;6.770;2023-12-20T01:58:00;5.40;99.90
54178;DHT22;40085;53.004;6.770;2023-12-20T02:00:27;5.40;99.90
54178;DHT22;40085;53.004;6.770;2023-12-20T02:02:54;5.50;99.90
54178;DHT22;40085;53.004;6.770;2023-12-20T02:05:23;5.50;99.90
54178;DHT22;40085;53.004;6.770;2023-12-20T02:07:49;5.90;99.90
54178;DHT22;40085;53.004;6.770;2023-12-20T02:10:15;5.60;99.90
54178;DHT22;40085;53.004;6.770;2023-12-20T02:12:41;5.60;99.90
54178;DHT22;40085;53.004;6.770;2023-12-20T02:15:07;5.60;99.90
54178;DHT22;40085;53.004;6.770;2023-12-20T02:17:33;5.50;99.90
54178;DHT22;40085;53.004;6.770;2023-12-20T02:19:59;5.50;99.90
54178;DHT22;40085;53.004;6.770;2023-12-20T02:22:24;6.00;99.90
54178;DHT22;40085;53.004;6.770;2023-12-20T02:24:50;5.60;99.90
54178;DHT22;40085;53.004;6.770;2023-12-20T02:27:18;5.70;99.90
54178;DHT22;40085;53.004;6.770;2023-12-20T02:29:46;5.60;99.90
54178;DHT22;40085;53.004;6.770;2023-12-20T02:32:12;5.60;99.90
54178;DHT22;40085;53.004;6.770;2023-12-20T02:34:38;5.60;99.90
54178;DHT22;40085;53.004;6.770;2023-12-20T02:37:04;5.60;99.90
54178;DHT22;40085;53.004;6.770;2023-12-20T02:39:30;5.60;99.90
54178;DHT22;40085;53.004;6.770;2023-12-20T02:41:56;5.70;99.90
54178;DHT22;40085;53.004;6.770;2023-12-20T02:44:21;5.60;99.90
54178;DHT22;40085;53.004;6.770;2023-12-20T02:46:47;5.60;99.90
54178;DHT22;40085;53.004;6.770;2023-12-20T02:49:13;5.60;99.90
54178;DHT22;40085;53.004;6.770;2023-12-20T02:51:38;5.60;99.90
54178;DHT22;40085;53.004;6.770;2023-12-20T02:54:04;5.60;99.90
54178;DHT22;40085;53.004;6.770;2023-12-20T02:56:32;5.60;99.90
54178;DHT22;40085;53.004;6.770;2023-12-20T02:58:57;5.70;99.90
54178;DHT22;40085;53.004;6.770;2023-12-20T03:01:23;5.70;99.90
54178;DHT22;40085;53.004;6.770;2023-12-20T03:03:48;5.80;99.90
54178;DHT22;40085;53.004;6.770;2023-12-20T03:06:20;5.80;99.90
54178;DHT22;40085;53.004;6.770;2023-12-20T03:08:46;5.90;99.90
54178;DHT22;40085;53.004;6.770;2023-12-20T03:11:12;5.80;99.90
54178;DHT22;40085;53.004;6.770;2023-12-20T03:13:38;5.90;99.90
54178;DHT22;40085;53.004;6.770;2023-12-20T03:16:13;5.90;99.90
54178;DHT22;40085;53.004;6.770;2023-12-20T03:18:39;5.90;99.90
54178;DHT22;40085;53.004;6.770;2023-12-20T03:21:05;5.90;99.90
54178;DHT22;40085;53.004;6.770;2023-12-20T03:23:31;6.90;99.90
54178;DHT22;40085;53.004;6.770;2023-12-20T03:25:59;5.80;99.90
54178;DHT22;40085;53.004;6.770;2023-12-20T03:28:26;6.10;99.90
54178;DHT22;40085;53.004;6.770;2023-12-20T03:30:51;5.80;99.90
54178;DHT22;40085;53.004;6.770;2023-12-20T03:33:17;5.80;99.90
54178;DHT22;40085;53.004;6.770;2023-12-20T03:35:43;5.70;99.90
54178;DHT22;40085;53.004;6.770;2023-12-20T03:38:08;5.70;99.90
54178;DHT22;40085;53.004;6.770;2023-12-20T03:40:34;5.70;99.90
54178;DHT22;40085;53.004;6.770;2023-12-20T03:43:00;5.80;99.90
54178;DHT22;40085;53.004;6.770;2023-12-20T03:45:26;5.70;99.90
54178;DHT22;40085;53.004;6.770;2023-12-20T03:47:52;5.70;99.90
54178;DHT22;40085;53.004;6.770;2023-12-20T03:50:23;6.10;99.90
54178;DHT22;40085;53.004;6.770;2023-12-20T03:52:49;5.70;99.90
54178;DHT22;40085;53.004;6.770;2023-12-20T03:55:15;5.90;99.90
54178;DHT22;40085;53.004;6.770;2023-12-20T03:57:41;5.70;99.90
54178;DHT22;40085;53.004;6.770;2023-12-20T04:00:10;5.70;99.90
54178;DHT22;40085;53.004;6.770;2023-12-20T04:02:42;5.70;99.90
54178;DHT22;40085;53.004;6.770;2023-12-20T04:05:09;5.70;99.90
54178;DHT22;40085;53.004;6.770;2023-12-20T04:07:38;5.80;99.90
54178;DHT22;40085;53.004;6.770;2023-12-20T04:10:05;5.80;99.90
54178;DHT22;40085;53.004;6.770;2023-12-20T04:12:31;5.80;99.90
54178;DHT22;40085;53.004;6.770;2023-12-20T04:14:57;6.10;99.90
54178;DHT22;40085;53.004;6.770;2023-12-20T04:17:23;6.00;99.90
54178;DHT22;40085;53.004;6.770;2023-12-20T04:19:49;5.90;99.90
54178;DHT22;40085;53.004;6.770;2023-12-20T04:22:15;6.00;99.90
54178;DHT22;40085;53.004;6.770;2023-12-20T04:24:41;6.20;99.90
54178;DHT22;40085;53.004;6.770;2023-12-20T04:27:08;6.10;99.90
54178;DHT22;40085;53.004;6.770;2023-12-20T04:29:34;6.40;99.90
54178;DHT22;40085;53.004;6.770;2023-12-20T04:31:59;6.10;99.90
54178;DHT22;40085;53.004;6.770;2023-12-20T04:34:26;6.20;99.90
54178;DHT22;40085;53.004;6.770;2023-12-20T04:36:52;6.20;99.90
54178;DHT22;40085;53.004;6.770;2023-12-20T04:39:18;6.20;99.90
54178;DHT22;40085;53.004;6.770;2023-12-20T04:41:43;6.30;99.90
54178;DHT22;40085;53.004;6.770;2023-12-20T04:44:09;6.40;99.90
54178;DHT22;40085;53.004;6.770;2023-12-20T04:46:35;6.30;99.90
54178;DHT22;40085;53.004;6.770;2023-12-20T04:49:01;6.30;99.90
54178;DHT22;40085;53.004;6.770;2023-12-20T04:51:27;6.60;99.90
54178;DHT22;40085;53.004;6.770;2023-12-20T04:53:52;6.50;99.90
54178;DHT22;40085;53.004;6.770;2023-12-20T04:56:18;6.30;99.90
54178;DHT22;40085;53.004;6.770;2023-12-20T04:58:44;6.30;99.90
54178;DHT22;40085;53.004;6.770;2023-12-20T05:01:09;6.30;99.90
54178;DHT22;40085;53.004;6.770;2023-12-20T05:03:35;6.30;99.90
54178;DHT22;40085;53.004;6.770;2023-12-20T05:06:01;6.30;99.90
54178;DHT22;40085;53.004;6.770;2023-12-20T05:08:27;6.30;99.90
54178;DHT22;40085;53.004;6.770;2023-12-20T05:10:56;6.30;99.90
54178;DHT22;40085;53.004;6.770;2023-12-20T05:13:22;6.40;99.90
54178;DHT22;40085;53.004;6.770;2023-12-20T05:15:47;7.00;99.90
54178;DHT22;40085;53.004;6.770;2023-12-20T05:18:13;6.50;99.90
54178;DHT22;40085;53.004;6.770;2023-12-20T05:20:39;6.50;99.90
54178;DHT22;40085;53.004;6.770;2023-12-20T05:23:05;6.50;99.90
54178;DHT22;40085;53.004;6.770;2023-12-20T05:25:31;6.50;99.90
54178;DHT22;40085;53.004;6.770;2023-12-20T05:27:57;6.50;99.90
54178;DHT22;40085;53.004;6.770;2023-12-20T05:30:23;6.50;99.90
54178;DHT22;40085;53.004;6.770;2023-12-20T05:32:48;6.50;99.90
54178;DHT22;40085;53.004;6.770;2023-12-20T05:35:14;6.60;99.90
54178;DHT22;40085;53.004;6.770;2023-12-20T05:37:41;6.60;99.90
54178;DHT22;40085;53.004;6.770;2023-12-20T05:40:07;6.70;99.90
54178;DHT22;40085;53.004;6.770;2023-12-20T05:42:36;6.70;99.90
54178;DHT22;40085;53.004;6.770;2023-12-20T05:45:02;6.70;99.90
54178;DHT22;40085;53.004;6.770;2023-12-20T05:47:28;6.60;99.90
54178;DHT22;40085;53.004;6.770;2023-12-20T05:49:53;6.70;99.90
54178;DHT22;40085;53.004;6.770;2023-12-20T05:52:20;6.70;99.90
54178;DHT22;40085;53.004;6.770;2023-12-20T05:54:46;6.70;99.90
54178;DHT22;40085;53.004;6.770;2023-12-20T05:57:11;6.80;99.90
54178;DHT22;40085;53.004;6.770;2023-12-20T05:59:37;6.90;99.90
54178;DHT22;40085;53.004;6.770;2023-12-20T06:02:04;6.70;99.90
54178;DHT22;40085;53.004;6.770;2023-12-20T06:04:30;6.80;99.90
54178;DHT22;40085;53.004;6.770;2023-12-20T06:06:56;7.70;99.90
54178;DHT22;40085;53.004;6.770;2023-12-20T06:09:21;6.80;99.90
54178;DHT22;40085;53.004;6.770;2023-12-20T06:11:47;8.00;99.90
54178;DHT22;40085;53.004;6.770;2023-12-20T06:14:13;7.60;99.90
54178;DHT22;40085;53.004;6.770;2023-12-20T06:16:38;6.80;99.90
54178;DHT22;40085;53.004;6.770;2023-12-20T06:19:04;6.90;99.90
54178;DHT22;40085;53.004;6.770;2023-12-20T06:21:30;6.90;99.90
54178;DHT22;40085;53.004;6.770;2023-12-20T06:23:55;6.90;99.90
54178;DHT22;40085;53.004;6.770;2023-12-20T06:26:21;6.90;99.90
54178;DHT22;40085;53.004;6.770;2023-12-20T06:28:47;6.90;99.90
54178;DHT22;40085;53.004;6.770;2023-12-20T06:31:12;7.00;99.90
54178;DHT22;40085;53.004;6.770;2023-12-20T06:33:39;7.00;99.90
54178;DHT22;40085;53.004;6.770;2023-12-20T06:36:06;7.20;99.90
54178;DHT22;40085;53.004;6.770;2023-12-20T06:38:32;7.00;99.90
54178;DHT22;40085;53.004;6.770;2023-12-20T06:40:58;7.00;99.90
54178;DHT22;40085;53.004;6.770;2023-12-20T06:43:24;7.00;99.90
54178;DHT22;40085;53.004;6.770;2023-12-20T06:45:49;7.00;99.90
54178;DHT22;40085;53.004;6.770;2023-12-20T06:48:16;7.00;99.90
54178;DHT22;40085;53.004;6.770;2023-12-20T06:50:42;7.00;99.90
54178;DHT22;40085;53.004;6.770;2023-12-20T06:53:07;7.00;99.90
54178;DHT22;40085;53.004;6.770;2023-12-20T06:55:35;7.00;99.90
54178;DHT22;40085;53.004;6.770;2023-12-20T06:58:02;7.00;99.90
54178;DHT22;40085;53.004;6.770;2023-12-20T07:00:31;7.00;99.90
54178;DHT22;40085;53.004;6.770;2023-12-20T07:02:57;6.90;99.90
54178;DHT22;40085;53.004;6.770;2023-12-20T07:05:23;6.90;99.90
54178;DHT22;40085;53.004;6.770;2023-12-20T07:07:48;7.00;99.90
54178;DHT22;40085;53.004;6.770;2023-12-20T07:10:14;7.00;99.90
54178;DHT22;40085;53.004;6.770;2023-12-20T07:12:40;7.00;99.90
54178;DHT22;40085;53.004;6.770;2023-12-20T07:15:06;7.00;99.90
54178;DHT22;40085;53.004;6.770;2023-12-20T07:17:34;7.10;99.90
54178;DHT22;40085;53.004;6.770;2023-12-20T07:20:00;7.10;99.90
54178;DHT22;40085;53.004;6.770;2023-12-20T07:22:33;7.10;99.90
54178;DHT22;40085;53.004;6.770;2023-12-20T07:24:59;7.20;99.90
54178;DHT22;40085;53.004;6.770;2023-12-20T07:27:26;7.10;99.90
54178;DHT22;40085;53.004;6.770;2023-12-20T07:29:51;7.10;99.90
54178;DHT22;40085;53.004;6.770;2023-12-20T07:32:17;7.10;99.90
54178;DHT22;40085;53.004;6.770;2023-12-20T07:34:43;7.40;99.90
54178;DHT22;40085;53.004;6.770;2023-12-20T07:37:09;7.20;99.90
54178;DHT22;40085;53.004;6.770;2023-12-20T07:39:42;7.20;99.90
54178;DHT22;40085;53.004;6.770;2023-12-20T07:42:08;7.20;99.90
54178;DHT22;40085;53.004;6.770;2023-12-20T07:44:34;7.20;99.90
54178;DHT22;40085;53.004;6.770;2023-12-20T07:47:01;7.20;99.90
54178;DHT22;40085;53.004;6.770;2023-12-20T07:49:27;7.30;99.90
54178;DHT22;40085;53.004;6.770;2023-12-20T07:51:52;7.30;99.90
54178;DHT22;40085;53.004;6.770;2023-12-20T07:54:18;7.30;99.90
54178;DHT22;40085;53.004;6.770;2023-12-20T07:56:44;7.50;99.90
54178;DHT22;40085;53.004;6.770;2023-12-20T07:59:10;7.40;99.90
54178;DHT22;40085;53.004;6.770;2023-12-20T08:01:36;7.30;99.90
54178;DHT22;40085;53.004;6.770;2023-12-20T08:04:01;8.00;99.90
54178;DHT22;40085;53.004;6.770;2023-12-20T08:06:27;7.40;99.90
54178;DHT22;40085;53.004;6.770;2023-12-20T08:08:53;7.40;99.90
54178;DHT22;40085;53.004;6.770;2023-12-20T08:11:19;7.40;99.90
54178;DHT22;40085;53.004;6.770;2023-12-20T08:13:44;7.40;99.90
54178;DHT22;40085;53.004;6.770;2023-12-20T08:16:10;7.50;99.90
54178;DHT22;40085;53.004;6.770;2023-12-20T08:18:39;7.50;99.90
54178;DHT22;40085;53.004;6.770;2023-12-20T08:21:04;7.50;99.90
54178;DHT22;40085;53.004;6.770;2023-12-20T08:23:33;8.00;99.90
54178;DHT22;40085;53.004;6.770;2023-12-20T08:25:58;7.70;99.90
54178;DHT22;40085;53.004;6.770;2023-12-20T08:28:28;7.50;99.90
54178;DHT22;40085;53.004;6.770;2023-12-20T08:30:54;7.60;99.90
54178;DHT22;40085;53.004;6.770;2023-12-20T08:33:20;7.60;99.90
54178;DHT22;40085;53.004;6.770;2023-12-20T08:35:46;7.70;99.90
54178;DHT22;40085;53.004;6.770;2023-12-20T08:38:11;7.70;99.90
54178;DHT22;40085;53.004;6.770;2023-12-20T08:40:37;7.70;99.90
54178;DHT22;40085;53.004;6.770;2023-12-20T08:43:03;7.70;99.90
54178;DHT22;40085;53.004;6.770;2023-12-20T08:45:29;7.70;99.90
54178;DHT22;40085;53.004;6.770;2023-12-20T08:47:54;7.60;99.90
54178;DHT22;40085;53.004;6.770;2023-12-20T08:50:20;7.60;99.90
54178;DHT22;40085;53.004;6.770;2023-12-20T08:52:46;7.50;99.90
54178;DHT22;40085;53.004;6.770;2023-12-20T08:55:12;7.30;99.90
54178;DHT22;40085;53.004;6.770;2023-12-20T08:57:38;7.10;99.90
54178;DHT22;40085;53.004;6.770;2023-12-20T09:00:04;7.00;99.90
54178;DHT22;40085;53.004;6.770;2023-12-20T09:02:32;6.90;99.90
54178;DHT22;40085;53.004;6.770;2023-12-20T09:04:58;6.90;99.90
54178;DHT22;40085;53.004;6.770;2023-12-20T09:07:25;7.00;99.90
54178;DHT22;40085;53.004;6.770;2023-12-20T09:09:52;7.10;99.90
54178;DHT22;40085;53.004;6.770;2023-12-20T09:12:18;7.20;99.90
54178;DHT22;40085;53.004;6.770;2023-12-20T09:14:45;7.20;99.90
54178;DHT22;40085;53.004;6.770;2023-12-20T09:17:11;7.30;99.90
54178;DHT22;40085;53.004;6.770;2023-12-20T09:19:37;7.40;99.90
54178;DHT22;40085;53.004;6.770;2023-12-20T09:22:04;7.40;99.90
54178;DHT22;40085;53.004;6.770;2023-12-20T09:24:30;7.50;99.90
54178;DHT22;40085;53.004;6.770;2023-12-20T09:26:56;7.60;99.90
54178;DHT22;40085;53.004;6.770;2023-12-20T09:29:22;7.70;99.90
54178;DHT22;40085;53.004;6.770;2023-12-20T09:31:48;7.80;99.90
54178;DHT22;40085;53.004;6.770;2023-12-20T09:34:15;7.20;99.90
54178;DHT22;40085;53.004;6.770;2023-12-20T09:36:41;7.00;99.90
54178;DHT22;40085;53.004;6.770;2023-12-20T09:39:15;6.50;99.90
54178;DHT22;40085;53.004;6.770;2023-12-20T09:41:45;6.30;99.90
54178;DHT22;40085;53.004;6.770;2023-12-20T09:44:16;6.30;99.90
54178;DHT22;40085;53.004;6.770;2023-12-20T09:46:47;6.10;99.90
54178;DHT22;40085;53.004;6.770;2023-12-20T09:49:14;6.10;99.90
54178;DHT22;40085;53.004;6.770;2023-12-20T09:51:42;6.00;99.90
54178;DHT22;40085;53.004;6.770;2023-12-20T09:54:08;6.00;99.90
54178;DHT22;40085;53.004;6.770;2023-12-20T09:56:35;6.00;99.90
54178;DHT22;40085;53.004;6.770;2023-12-20T09:59:02;6.00;99.90
54178;DHT22;40085;53.004;6.770;2023-12-20T10:01:28;6.00;99.90
54178;DHT22;40085;53.004;6.770;2023-12-20T10:03:55;7.10;99.90
54178;DHT22;40085;53.004;6.770;2023-12-20T10:06:21;6.30;99.90
54178;DHT22;40085;53.004;6.770;2023-12-20T10:08:47;6.10;99.90
54178;DHT22;40085;53.004;6.770;2023-12-20T10:11:13;6.10;99.90
54178;DHT22;40085;53.004;6.770;2023-12-20T10:13:40;6.00;99.90
54178;DHT22;40085;53.004;6.770;2023-12-20T10:16:09;6.10;99.90
54178;DHT22;40085;53.004;6.770;2023-12-20T10:18:35;6.10;99.90
54178;DHT22;40085;53.004;6.770;2023-12-20T10:21:01;6.10;99.90
54178;DHT22;40085;53.004;6.770;2023-12-20T10:23:29;6.10;99.90
54178;DHT22;40085;53.004;6.770;2023-12-20T10:25:58;6.10;99.90
54178;DHT22;40085;53.004;6.770;2023-12-20T10:28:24;6.10;99.90
54178;DHT22;40085;53.004;6.770;2023-12-20T10:30:53;6.20;99.90
54178;DHT22;40085;53.004;6.770;2023-12-20T10:33:27;6.10;99.90
54178;DHT22;40085;53.004;6.770;2023-12-20T10:35:53;6.20;99.90
54178;DHT22;40085;53.004;6.770;2023-12-20T10:38:19;6.10;99.90
54178;DHT22;40085;53.004;6.770;2023-12-20T10:40:46;6.00;99.90
54178;DHT22;40085;53.004;6.770;2023-12-20T10:43:12;6.00;99.90
54178;DHT22;40085;53.004;6.770;2023-12-20T10:45:39;6.00;99.90
54178;DHT22;40085;53.004;6.770;2023-12-20T10:48:05;6.00;99.90
54178;DHT22;40085;53.004;6.770;2023-12-20T10:50:31;6.00;99.90
54178;DHT22;40085;53.004;6.770;2023-12-20T10:52:58;6.00;99.90
54178;DHT22;40085;53.004;6.770;2023-12-20T10:55:24;6.30;99.90
54178;DHT22;40085;53.004;6.770;2023-12-20T10:57:51;6.70;99.90
54178;DHT22;40085;53.004;6.770;2023-12-20T11:00:18;6.10;99.90
54178;DHT22;40085;53.004;6.770;2023-12-20T11:02:44;6.30;99.90
54178;DHT22;40085;53.004;6.770;2023-12-20T11:05:25;6.80;99.90
54178;DHT22;40085;53.004;6.770;2023-12-20T11:08:03;6.40;99.90
54178;DHT22;40085;53.004;6.770;2023-12-20T11:10:49;6.40;99.90
54178;DHT22;40085;53.004;6.770;2023-12-20T11:13:22;6.40;99.90
54178;DHT22;40085;53.004;6.770;2023-12-20T11:15:49;6.50;99.90
54178;DHT22;40085;53.004;6.770;2023-12-20T11:18:15;6.60;99.90
54178;DHT22;40085;53.004;6.770;2023-12-20T11:20:42;6.60;99.90
54178;DHT22;40085;53.004;6.770;2023-12-20T11:23:09;6.60;99.90
54178;DHT22;40085;53.004;6.770;2023-12-20T11:28:13;6.60;99.90
54178;DHT22;40085;53.004;6.770;2023-12-20T11:30:42;6.90;99.90
54178;DHT22;40085;53.004;6.770;2023-12-20T11:33:08;6.70;99.90
54178;DHT22;40085;53.004;6.770;2023-12-20T11:35:34;6.70;99.90
54178;DHT22;40085;53.004;6.770;2023-12-20T11:38:02;6.80;99.90
54178;DHT22;40085;53.004;6.770;2023-12-20T11:40:28;6.80;99.90
54178;DHT22;40085;53.004;6.770;2023-12-20T11:42:53;6.80;99.90
54178;DHT22;40085;53.004;6.770;2023-12-20T11:45:20;6.90;99.90
54178;DHT22;40085;53.004;6.770;2023-12-20T11:47:48;6.90;99.90
54178;DHT22;40085;53.004;6.770;2023-12-20T11:50:15;7.00;99.90
54178;DHT22;40085;53.004;6.770;2023-12-20T11:52:41;7.00;99.90
54178;DHT22;40085;53.004;6.770;2023-12-20T11:55:07;7.00;99.90
54178;DHT22;40085;53.004;6.770;2023-12-20T11:57:33;7.00;99.90
54178;DHT22;40085;53.004;6.770;2023-12-20T11:59:59;7.10;99.90
54178;DHT22;40085;53.004;6.770;2023-12-20T12:02:25;7.10;99.90
54178;DHT22;40085;53.004;6.770;2023-12-20T12:04:51;7.40;99.90
54178;DHT22;40085;53.004;6.770;2023-12-20T12:07:17;7.40;99.90
54178;DHT22;40085;53.004;6.770;2023-12-20T12:09:43;7.70;99.90
54178;DHT22;40085;53.004;6.770;2023-12-20T12:12:10;7.50;99.90
54178;DHT22;40085;53.004;6.770;2023-12-20T12:14:37;7.50;99.90
54178;DHT22;40085;53.004;6.770;2023-12-20T12:17:03;7.80;99.90
54178;DHT22;40085;53.004;6.770;2023-12-20T12:19:29;8.00;99.90
54178;DHT22;40085;53.004;6.770;2023-12-20T12:22:20;7.50;99.90
54178;DHT22;40085;53.004;6.770;2023-12-20T12:24:51;7.50;99.90
54178;DHT22;40085;53.004;6.770;2023-12-20T12:27:16;7.40;99.90
54178;DHT22;40085;53.004;6.770;2023-12-20T12:30:01;7.40;99.90
54178;DHT22;40085;53.004;6.770;2023-12-20T12:32:27;7.40;99.90
54178;DHT22;40085;53.004;6.770;2023-12-20T12:34:53;7.30;99.90
54178;DHT22;40085;53.004;6.770;2023-12-20T12:37:18;7.70;99.90
54178;DHT22;40085;53.004;6.770;2023-12-20T12:39:46;7.30;99.90
54178;DHT22;40085;53.004;6.770;2023-12-20T12:42:12;7.20;99.90
54178;DHT22;40085;53.004;6.770;2023-12-20T12:44:38;7.20;99.90
54178;DHT22;40085;53.004;6.770;2023-12-20T12:47:03;7.20;99.90
54178;DHT22;40085;53.004;6.770;2023-12-20T12:49:29;7.20;99.90
54178;DHT22;40085;53.004;6.770;2023-12-20T12:51:54;7.10;99.90
54178;DHT22;40085;53.004;6.770;2023-12-20T12:54:23;7.20;99.90
54178;DHT22;40085;53.004;6.770;2023-12-20T12:56:49;7.20;99.90
54178;DHT22;40085;53.004;6.770;2023-12-20T12:59:16;7.10;99.90
54178;DHT22;40085;53.004;6.770;2023-12-20T13:01:42;7.10;99.90
54178;DHT22;40085;53.004;6.770;2023-12-20T13:04:09;7.20;99.90
54178;DHT22;40085;53.004;6.770;2023-12-20T13:06:39;7.20;99.90
54178;DHT22;40085;53.004;6.770;2023-12-20T13:09:07;7.20;99.90
54178;DHT22;40085;53.004;6.770;2023-12-20T13:11:35;7.20;99.90
54178;DHT22;40085;53.004;6.770;2023-12-20T13:14:00;7.20;99.90
54178;DHT22;40085;53.004;6.770;2023-12-20T13:16:26;7.20;99.90
54178;DHT22;40085;53.004;6.770;2023-12-20T13:18:52;7.20;99.90
54178;DHT22;40085;53.004;6.770;2023-12-20T13:21:18;7.20;99.90
54178;DHT22;40085;53.004;6.770;2023-12-20T13:23:43;7.10;99.90
54178;DHT22;40085;53.004;6.770;2023-12-20T13:26:09;7.20;99.90
54178;DHT22;40085;53.004;6.770;2023-12-20T13:28:35;7.20;99.90
54178;DHT22;40085;53.004;6.770;2023-12-20T13:31:01;7.10;99.90
54178;DHT22;40085;53.004;6.770;2023-12-20T13:33:26;7.00;99.90
54178;DHT22;40085;53.004;6.770;2023-12-20T13:35:52;7.00;99.90
54178;DHT22;40085;53.004;6.770;2023-12-20T13:38:18;6.90;99.90
54178;DHT22;40085;53.004;6.770;2023-12-20T13:40:44;6.80;99.90
54178;DHT22;40085;53.004;6.770;2023-12-20T13:43:10;6.70;99.90
54178;DHT22;40085;53.004;6.770;2023-12-20T13:45:39;6.70;99.90
54178;DHT22;40085;53.004;6.770;2023-12-20T13:48:05;6.60;99.90
54178;DHT22;40085;53.004;6.770;2023-12-20T13:50:31;6.60;99.90
54178;DHT22;40085;53.004;6.770;2023-12-20T13:52:56;6.60;99.90
54178;DHT22;40085;53.004;6.770;2023-12-20T13:55:22;6.50;99.90
54178;DHT22;40085;53.004;6.770;2023-12-20T13:57:51;6.80;99.90
54178;DHT22;40085;53.004;6.770;2023-12-20T14:00:17;6.30;99.90
54178;DHT22;40085;53.004;6.770;2023-12-20T14:02:42;6.30;99.90
54178;DHT22;40085;53.004;6.770;2023-12-20T14:05:11;6.30;99.90
54178;DHT22;40085;53.004;6.770;2023-12-20T14:07:37;6.30;99.90
54178;DHT22;40085;53.004;6.770;2023-12-20T14:10:03;6.20;99.90
54178;DHT22;40085;53.004;6.770;2023-12-20T14:12:29;6.20;99.90
54178;DHT22;40085;53.004;6.770;2023-12-20T14:14:55;6.20;99.90
54178;DHT22;40085;53.004;6.770;2023-12-20T14:17:21;6.20;99.90
54178;DHT22;40085;53.004;6.770;2023-12-20T14:19:47;6.20;99.90
54178;DHT22;40085;53.004;6.770;2023-12-20T14:22:13;6.10;99.90
54178;DHT22;40085;53.004;6.770;2023-12-20T14:24:42;6.20;99.90
54178;DHT22;40085;53.004;6.770;2023-12-20T14:27:08;6.50;99.90
54178;DHT22;40085;53.004;6.770;2023-12-20T14:29:35;6.10;99.90
54178;DHT22;40085;53.004;6.770;2023-12-20T14:32:00;6.10;99.90
54178;DHT22;40085;53.004;6.770;2023-12-20T14:34:29;6.10;99.90
54178;DHT22;40085;53.004;6.770;2023-12-20T14:36:55;6.10;99.90
54178;DHT22;40085;53.004;6.770;2023-12-20T14:39:21;6.10;99.90
54178;DHT22;40085;53.004;6.770;2023-12-20T14:41:46;6.10;99.90
54178;DHT22;40085;53.004;6.770;2023-12-20T14:44:12;6.10;99.90
54178;DHT22;40085;53.004;6.770;2023-12-20T14:46:38;6.10;99.90
54178;DHT22;40085;53.004;6.770;2023-12-20T14:49:05;6.00;99.90
54178;DHT22;40085;53.004;6.770;2023-12-20T14:51:30;6.00;99.90
54178;DHT22;40085;53.004;6.770;2023-12-20T14:53:56;6.00;99.90
54178;DHT22;40085;53.004;6.770;2023-12-20T14:56:23;6.00;99.90
54178;DHT22;40085;53.004;6.770;2023-12-20T14:58:49;6.00;99.90
54178;DHT22;40085;53.004;6.770;2023-12-20T15:01:15;6.00;99.90
54178;DHT22;40085;53.004;6.770;2023-12-20T15:03:40;6.20;99.90
54178;DHT22;40085;53.004;6.770;2023-12-20T15:06:06;6.20;99.90
54178;DHT22;40085;53.004;6.770;2023-12-20T15:08:32;6.00;99.90
54178;DHT22;40085;53.004;6.770;2023-12-20T15:10:58;6.00;99.90
54178;DHT22;40085;53.004;6.770;2023-12-20T15:13:24;6.00;99.90
54178;DHT22;40085;53.004;6.770;2023-12-20T15:15:50;6.40;99.90
54178;DHT22;40085;53.004;6.770;2023-12-20T15:18:16;6.20;99.90
54178;DHT22;40085;53.004;6.770;2023-12-20T15:20:41;6.60;99.90
54178;DHT22;40085;53.004;6.770;2023-12-20T15:23:09;6.00;99.90
54178;DHT22;40085;53.004;6.770;2023-12-20T15:25:35;6.00;99.90
54178;DHT22;40085;53.004;6.770;2023-12-20T15:28:01;6.00;99.90
54178;DHT22;40085;53.004;6.770;2023-12-20T15:30:28;6.00;99.90
54178;DHT22;40085;53.004;6.770;2023-12-20T15:32:55;6.00;99.90
54178;DHT22;40085;53.004;6.770;2023-12-20T15:35:21;6.00;99.90
54178;DHT22;40085;53.004;6.770;2023-12-20T15:37:47;6.00;99.90
54178;DHT22;40085;53.004;6.770;2023-12-20T15:40:13;6.00;99.90
54178;DHT22;40085;53.004;6.770;2023-12-20T15:42:39;6.20;99.90